createdAt,value
2023-04-16T00:00:54.223Z,89.38
2023-04-16T00:03:22.148Z,89.07
2023-04-16T00:05:50.039Z,89.05
2023-04-16T00:08:17.705Z,89.32
2023-04-16T00:10:46.814Z,89.11
2023-04-16T00:13:14.558Z,88.98
2023-04-16T00:15:42.171Z,88.52
2023-04-16T00:18:09.920Z,88.59
2023-04-16T00:20:37.953Z,88.62
2023-04-16T00:23:05.720Z,88.45
2023-04-16T00:25:33.364Z,88.32
2023-04-16T00:28:02.883Z,87.78
2023-04-16T00:30:30.574Z,87.97
2023-04-16T00:32:58.440Z,88.23
2023-04-16T00:35:26.307Z,88.24
2023-04-16T00:37:53.986Z,88.48
2023-04-16T00:40:22.048Z,88.34
2023-04-16T00:42:49.756Z,88.17
2023-04-16T00:45:18.839Z,88.15
2023-04-16T00:47:46.812Z,88.04
2023-04-16T00:50:15.184Z,88.29
2023-04-16T00:52:43.676Z,88.83
2023-04-16T00:55:13.371Z,88.65
2023-04-16T00:57:41.081Z,88.68
2023-04-16T01:00:09.825Z,88.87
2023-04-16T01:02:39.336Z,89.30
2023-04-16T01:05:07.790Z,89.16
2023-04-16T01:07:35.759Z,88.61
2023-04-16T01:10:04.074Z,88.92
2023-04-16T01:12:32.518Z,88.55
2023-04-16T01:15:00.744Z,89.57
2023-04-16T01:17:28.483Z,89.55
2023-04-16T01:20:00.593Z,89.00
2023-04-16T01:22:29.902Z,89.36
2023-04-16T01:24:57.639Z,89.67
2023-04-16T01:27:25.535Z,89.52
2023-04-16T01:29:53.378Z,90.20
2023-04-16T01:32:21.094Z,89.99
2023-04-16T01:34:48.791Z,89.90
2023-04-16T01:37:16.602Z,90.31
2023-04-16T01:39:45.788Z,89.81
2023-04-16T01:42:13.449Z,90.34
2023-04-16T01:44:41.125Z,90.38
2023-04-16T01:47:09.515Z,90.87
2023-04-16T01:49:37.602Z,91.28
2023-04-16T01:52:05.650Z,91.77
2023-04-16T01:54:33.680Z,91.50
2023-04-16T01:57:03.189Z,91.80
2023-04-16T01:59:30.877Z,92.11
2023-04-16T02:02:02.352Z,91.75
2023-04-16T02:04:30.101Z,91.53
2023-04-16T02:06:57.760Z,91.79
2023-04-16T02:09:25.598Z,91.92
2023-04-16T02:11:53.289Z,91.85
2023-04-16T02:14:25.496Z,92.49
2023-04-16T02:16:53.324Z,92.18
2023-04-16T02:19:21.712Z,92.28
2023-04-16T02:21:49.602Z,92.34
2023-04-16T02:24:17.300Z,92.69
2023-04-16T02:26:45.050Z,92.12
2023-04-16T02:29:12.758Z,92.16
2023-04-16T02:31:41.899Z,93.08
2023-04-16T02:34:09.672Z,92.78
2023-04-16T02:36:37.868Z,93.09
2023-04-16T02:39:06.289Z,92.99
2023-04-16T02:41:34.032Z,92.52
2023-04-16T02:44:02.007Z,92.56
2023-04-16T02:46:29.727Z,93.00
2023-04-16T02:48:58.792Z,93.45
2023-04-16T02:51:27.704Z,93.78
2023-04-16T02:53:55.384Z,93.85
2023-04-16T02:56:23.060Z,93.54
2023-04-16T02:58:50.715Z,93.45
2023-04-16T03:01:18.477Z,93.65
2023-04-16T03:03:46.334Z,94.28
2023-04-16T03:06:15.576Z,94.01
2023-04-16T03:08:43.304Z,94.11
2023-04-16T03:11:11.014Z,94.45
2023-04-16T03:13:38.787Z,94.00
2023-04-16T03:16:07.667Z,94.44
2023-04-16T03:18:35.674Z,94.57
2023-04-16T03:21:03.575Z,94.93
2023-04-16T03:23:32.932Z,94.94
2023-04-16T03:26:00.662Z,95.12
2023-04-16T03:28:28.345Z,95.13
2023-04-16T03:30:56.070Z,95.13
2023-04-16T03:33:23.776Z,94.37
2023-04-16T03:35:57.181Z,94.84
2023-04-16T03:38:25.042Z,95.23
2023-04-16T03:40:54.118Z,95.26
2023-04-16T03:43:22.145Z,95.49
2023-04-16T03:45:49.983Z,95.09
2023-04-16T03:48:17.691Z,95.18
2023-04-16T03:50:47.897Z,95.39
2023-04-16T03:53:15.907Z,95.85
2023-04-16T03:55:43.843Z,95.71
2023-04-16T03:58:12.945Z,95.36
2023-04-16T04:00:42.780Z,95.83
2023-04-16T04:03:10.986Z,95.28
2023-04-16T04:05:39.059Z,95.94
2023-04-16T04:08:07.007Z,96.12
2023-04-16T04:10:35.379Z,96.04
2023-04-16T04:13:04.876Z,96.27
2023-04-16T04:15:34.039Z,96.06
2023-04-16T04:18:01.813Z,95.89
2023-04-16T04:20:29.756Z,95.94
2023-04-16T04:22:57.597Z,95.53
2023-04-16T04:25:25.528Z,95.89
2023-04-16T04:27:53.238Z,95.28
2023-04-16T04:30:21.085Z,95.04
2023-04-16T04:32:50.696Z,95.58
2023-04-16T04:35:18.601Z,95.16
2023-04-16T04:37:46.498Z,95.13
2023-04-16T04:40:14.201Z,95.33
2023-04-16T04:42:41.917Z,95.27
2023-04-16T04:45:11.508Z,95.65
2023-04-16T04:47:39.322Z,95.77
2023-04-16T04:50:09.703Z,95.98
2023-04-16T04:52:37.620Z,95.79
2023-04-16T04:55:06.098Z,96.25
2023-04-16T04:57:33.748Z,97.20
2023-04-16T05:00:03.688Z,96.38
2023-04-16T05:02:31.607Z,95.95
2023-04-16T05:04:59.389Z,96.93
2023-04-16T05:07:28.467Z,96.83
2023-04-16T05:09:56.122Z,96.31
2023-04-16T05:12:23.916Z,96.44
2023-04-16T05:14:51.615Z,96.52
2023-04-16T05:17:19.504Z,96.20
2023-04-16T05:19:47.258Z,96.44
2023-04-16T05:22:18.763Z,96.78
2023-04-16T05:24:47.885Z,96.62
2023-04-16T05:27:15.814Z,96.29
2023-04-16T05:29:43.479Z,96.91
2023-04-16T05:32:11.217Z,97.06
2023-04-16T05:34:38.951Z,97.47
2023-04-16T05:37:06.631Z,97.29
2023-04-16T05:39:34.340Z,96.62
2023-04-16T05:42:03.529Z,97.08
2023-04-16T05:44:31.237Z,97.24
2023-04-16T05:46:58.931Z,97.44
2023-04-16T05:49:26.634Z,96.77
2023-04-16T05:51:54.389Z,97.16
2023-04-16T05:54:22.312Z,97.62
2023-04-16T05:56:49.949Z,97.61
2023-04-16T05:59:19.007Z,97.20
2023-04-16T06:01:46.733Z,96.72
2023-04-16T06:04:14.580Z,96.30
2023-04-16T06:06:43.972Z,96.13
2023-04-16T06:09:12.268Z,96.13
2023-04-16T06:11:40.112Z,95.75
2023-04-16T06:14:08.031Z,95.75
2023-04-16T06:16:38.775Z,95.51
2023-04-16T06:19:06.516Z,94.81
2023-04-16T06:21:34.631Z,95.09
2023-04-16T06:24:02.398Z,94.77
2023-04-16T06:26:30.060Z,94.96
2023-04-16T06:28:59.864Z,94.37
2023-04-16T06:31:27.964Z,94.03
2023-04-16T06:33:57.036Z,93.71
2023-04-16T06:36:24.747Z,93.47
2023-04-16T06:38:52.411Z,92.74
2023-04-16T06:41:20.248Z,92.32
2023-04-16T06:43:47.988Z,91.92
2023-04-16T06:46:15.850Z,91.01
2023-04-16T06:48:43.676Z,91.21
2023-04-16T06:51:13.277Z,90.73
2023-04-16T06:53:42.418Z,90.07
2023-04-16T06:56:10.185Z,90.36
2023-04-16T06:58:38.121Z,89.66
2023-04-16T07:01:06.125Z,89.48
2023-04-16T07:03:34.058Z,89.27
2023-04-16T07:06:02.342Z,89.65
2023-04-16T07:08:31.451Z,89.41
2023-04-16T07:10:59.351Z,89.33
2023-04-16T07:13:27.643Z,88.66
2023-04-16T07:15:55.461Z,88.37
2023-04-16T07:18:23.472Z,87.72
2023-04-16T07:20:51.272Z,87.16
2023-04-16T07:23:19.033Z,87.03
2023-04-16T07:25:48.257Z,86.29
2023-04-16T07:28:17.582Z,86.40
2023-04-16T07:30:45.536Z,85.53
2023-04-16T07:33:13.389Z,84.85
2023-04-16T07:35:41.151Z,84.43
2023-04-16T07:38:09.241Z,83.98
2023-04-16T07:40:38.658Z,83.88
2023-04-16T07:43:08.446Z,84.12
2023-04-16T07:45:36.969Z,84.16
2023-04-16T07:48:05.264Z,84.60
2023-04-16T07:50:33.387Z,84.98
2023-04-16T07:53:01.255Z,85.01
2023-04-16T07:55:29.033Z,84.74
2023-04-16T07:57:56.789Z,85.09
2023-04-16T08:00:26.327Z,84.23
2023-04-16T08:02:54.394Z,83.86
2023-04-16T08:05:22.350Z,83.55
2023-04-16T08:07:50.204Z,82.82
2023-04-16T08:10:18.362Z,82.61
2023-04-16T08:12:46.295Z,82.95
2023-04-16T08:15:14.040Z,83.13
2023-04-16T08:17:43.245Z,82.13
2023-04-16T08:20:15.021Z,81.40
2023-04-16T08:22:45.848Z,81.25
2023-04-16T08:25:13.596Z,80.70
2023-04-16T08:27:41.399Z,80.99
2023-04-16T08:30:09.740Z,80.42
2023-04-16T08:32:37.814Z,80.06
2023-04-16T08:35:07.710Z,80.17
2023-04-16T08:37:35.788Z,78.96
2023-04-16T08:40:03.983Z,78.35
2023-04-16T08:42:33.559Z,77.71
2023-04-16T08:45:08.792Z,78.20
2023-04-16T08:47:37.739Z,77.80
2023-04-16T08:50:10.018Z,77.69
2023-04-16T08:52:44.103Z,76.72
2023-04-16T08:55:15.100Z,76.36
2023-04-16T08:57:49.993Z,76.29
2023-04-16T09:00:18.550Z,76.36
2023-04-16T09:02:46.958Z,76.60
2023-04-16T09:05:18.127Z,76.96
2023-04-16T09:07:47.323Z,77.08
2023-04-16T09:10:16.113Z,76.75
2023-04-16T09:12:44.583Z,76.93
2023-04-16T09:15:14.201Z,76.45
2023-04-16T09:17:43.019Z,76.25
2023-04-16T09:20:12.494Z,75.58
2023-04-16T09:22:41.667Z,75.03
2023-04-16T09:25:11.033Z,74.56
2023-04-16T09:27:39.126Z,74.16
2023-04-16T09:30:22.883Z,73.75
2023-04-16T09:32:51.215Z,73.40
2023-04-16T09:35:20.003Z,73.46
2023-04-16T09:37:58.905Z,73.50
2023-04-16T09:40:30.477Z,73.42
2023-04-16T09:43:00.742Z,72.93
2023-04-16T09:45:33.989Z,73.23
2023-04-16T09:48:05.931Z,72.74
2023-04-16T09:50:33.679Z,71.42
2023-04-16T09:53:04.465Z,71.31
2023-04-16T09:55:32.242Z,71.52
2023-04-16T09:58:01.243Z,71.11
2023-04-16T10:00:31.001Z,70.77
2023-04-16T10:03:05.785Z,70.54
2023-04-16T10:05:33.639Z,70.75
2023-04-16T10:08:03.000Z,70.33
2023-04-16T10:10:30.856Z,70.10
2023-04-16T10:12:59.021Z,70.32
2023-04-16T10:15:26.951Z,69.75
2023-04-16T10:17:55.193Z,68.64
2023-04-16T10:20:24.913Z,68.14
2023-04-16T10:22:54.217Z,67.96
2023-04-16T10:25:24.397Z,68.02
2023-04-16T10:27:52.750Z,67.43
2023-04-16T10:30:36.297Z,68.03
2023-04-16T10:33:06.285Z,67.32
2023-04-16T10:35:33.998Z,67.38
2023-04-16T10:38:23.157Z,67.56
2023-04-16T10:40:59.129Z,67.68
2023-04-16T10:43:27.017Z,67.75
2023-04-16T10:45:55.194Z,67.11
2023-04-16T10:48:26.321Z,66.96
2023-04-16T10:50:58.515Z,66.75
2023-04-16T10:53:27.930Z,66.34
2023-04-16T10:56:12.660Z,66.51
2023-04-16T10:58:40.401Z,66.07
2023-04-16T11:01:12.101Z,65.48
2023-04-16T11:03:43.899Z,65.64
2023-04-16T11:06:13.520Z,65.40
2023-04-16T11:08:53.919Z,65.46
2023-04-16T11:11:24.543Z,64.70
2023-04-16T11:13:56.953Z,63.52
2023-04-16T11:16:26.498Z,63.03
2023-04-16T11:18:56.729Z,63.61
2023-04-16T11:21:25.412Z,64.61
2023-04-16T11:23:54.331Z,64.93
2023-04-16T11:26:25.157Z,64.55
2023-04-16T11:28:53.384Z,63.81
2023-04-16T11:31:21.232Z,62.88
2023-04-16T11:33:49.110Z,62.22
2023-04-16T11:36:16.952Z,61.89
2023-04-16T11:38:44.723Z,60.78
2023-04-16T11:41:13.208Z,60.18
2023-04-16T11:43:42.313Z,60.82
2023-04-16T11:46:24.073Z,60.74
2023-04-16T11:48:56.443Z,60.82
2023-04-16T11:51:24.408Z,60.38
2023-04-16T11:53:53.512Z,61.11
2023-04-16T11:56:29.379Z,61.00
2023-04-16T11:59:12.408Z,60.63
2023-04-16T12:01:41.813Z,60.21
2023-04-16T12:04:10.463Z,60.22
2023-04-16T12:06:38.861Z,59.56
2023-04-16T12:09:26.084Z,60.05
2023-04-16T12:11:54.210Z,59.79
2023-04-16T12:14:24.194Z,60.18
2023-04-16T12:16:52.156Z,60.78
2023-04-16T12:19:20.047Z,61.35
2023-04-16T12:21:50.314Z,60.26
2023-04-16T12:24:23.342Z,60.42
2023-04-16T12:26:56.162Z,60.49
2023-04-16T12:29:26.230Z,60.40
2023-04-16T12:31:55.065Z,60.76
2023-04-16T12:34:49.247Z,61.11
2023-04-16T12:37:11.303Z,61.21
2023-04-16T12:39:39.073Z,61.67
2023-04-16T12:42:11.268Z,61.29
2023-04-16T12:44:40.603Z,61.48
2023-04-16T12:47:08.539Z,61.74
2023-04-16T12:49:38.200Z,62.45
2023-04-16T12:52:06.385Z,61.91
2023-04-16T12:54:34.167Z,62.59
2023-04-16T12:57:01.980Z,61.53
2023-04-16T12:59:30.000Z,61.58
2023-04-16T13:01:59.352Z,61.25
2023-04-16T13:04:27.369Z,61.10
2023-04-16T13:06:55.354Z,61.06
2023-04-16T13:09:23.328Z,61.88
2023-04-16T13:11:51.254Z,60.83
2023-04-16T13:14:19.073Z,60.87
2023-04-16T13:16:47.315Z,61.26
2023-04-16T13:19:19.136Z,60.18
2023-04-16T13:21:47.065Z,60.52
2023-04-16T13:24:15.249Z,60.57
2023-04-16T13:26:43.720Z,60.31
2023-04-16T13:29:12.131Z,59.88
2023-04-16T13:31:40.228Z,60.33
2023-04-16T13:34:08.466Z,60.35
2023-04-16T13:36:37.902Z,59.67
2023-04-16T13:39:11.490Z,58.52
2023-04-16T13:41:39.974Z,59.13
2023-04-16T13:44:08.492Z,58.75
2023-04-16T13:46:36.596Z,58.84
2023-04-16T13:49:04.359Z,59.31
2023-04-16T13:51:32.109Z,57.57
2023-04-16T13:54:01.572Z,58.18
2023-04-16T13:56:29.429Z,58.20
2023-04-16T13:58:57.272Z,57.97
2023-04-16T14:01:25.189Z,58.59
2023-04-16T14:03:56.102Z,58.64
2023-04-16T14:06:23.922Z,58.14
2023-04-16T14:08:51.660Z,58.56
2023-04-16T14:11:20.754Z,58.40
2023-04-16T14:13:48.631Z,58.82
2023-04-16T14:16:16.563Z,58.80
2023-04-16T14:18:44.624Z,58.75
2023-04-16T14:21:12.396Z,58.24
2023-04-16T14:23:40.344Z,58.04
2023-04-16T14:26:08.158Z,57.94
2023-04-16T14:28:37.463Z,57.40
2023-04-16T14:31:05.248Z,57.96
2023-04-16T14:33:33.458Z,57.56
2023-04-16T14:36:03.214Z,56.61
2023-04-16T14:38:31.548Z,57.65
2023-04-16T14:41:00.546Z,58.16
2023-04-16T14:43:28.539Z,57.69
2023-04-16T14:45:58.651Z,57.69
2023-04-16T14:48:26.559Z,58.11
2023-04-16T14:50:54.817Z,58.53
2023-04-16T14:53:24.556Z,57.10
2023-04-16T14:55:53.511Z,57.65
2023-04-16T14:58:21.946Z,57.34
2023-04-16T15:00:49.719Z,57.12
2023-04-16T15:03:19.230Z,56.89
2023-04-16T15:05:50.766Z,57.04
2023-04-16T15:08:18.591Z,56.82
2023-04-16T15:10:46.365Z,56.30
2023-04-16T15:13:14.221Z,55.33
2023-04-16T15:15:42.023Z,55.19
2023-04-16T15:18:10.018Z,55.81
2023-04-16T15:20:39.277Z,55.84
2023-04-16T15:23:07.076Z,56.54
2023-04-16T15:25:34.911Z,56.71
2023-04-16T15:28:02.963Z,57.42
2023-04-16T15:30:32.137Z,57.42
2023-04-16T15:33:00.594Z,57.71
2023-04-16T15:35:28.420Z,57.91
2023-04-16T15:37:57.670Z,57.94
2023-04-16T15:40:26.344Z,58.00
2023-04-16T15:42:55.915Z,57.79
2023-04-16T15:45:23.959Z,61.57
2023-04-16T15:47:52.042Z,63.38
2023-04-16T15:50:20.822Z,65.82
2023-04-16T15:52:48.736Z,67.16
2023-04-16T15:55:19.206Z,67.76
2023-04-16T15:57:47.098Z,68.62
2023-04-16T16:00:17.107Z,69.27
2023-04-16T16:02:46.664Z,69.82
2023-04-16T16:05:15.639Z,69.89
2023-04-16T16:07:44.137Z,70.32
2023-04-16T16:10:13.104Z,71.49
2023-04-16T16:12:42.865Z,71.96
2023-04-16T16:15:11.987Z,72.20
2023-04-16T16:17:40.581Z,73.85
2023-04-16T16:20:10.394Z,74.85
2023-04-16T16:22:39.108Z,75.94
2023-04-16T16:25:10.133Z,77.08
2023-04-16T16:27:38.138Z,77.65
2023-04-16T16:30:09.135Z,78.37
2023-04-16T16:32:37.708Z,79.48
2023-04-16T16:35:05.983Z,80.06
2023-04-16T16:37:33.720Z,80.97
2023-04-16T16:40:01.690Z,80.91
2023-04-16T16:42:29.484Z,81.61
2023-04-16T16:44:57.623Z,82.34
2023-04-16T16:47:26.950Z,83.36
2023-04-16T16:49:54.874Z,84.26
2023-04-16T16:52:24.675Z,84.37
2023-04-16T16:54:52.529Z,84.40
2023-04-16T16:57:20.793Z,84.51
2023-04-16T16:59:50.342Z,84.56
2023-04-16T17:02:18.185Z,84.27
2023-04-16T17:04:49.524Z,84.28
2023-04-16T17:07:17.635Z,84.50
2023-04-16T17:09:46.170Z,84.76
2023-04-16T17:12:13.929Z,85.11
2023-04-16T17:14:41.926Z,84.98
2023-04-16T17:17:09.964Z,85.15
2023-04-16T17:19:40.645Z,84.51
2023-04-16T17:22:09.812Z,84.48
2023-04-16T17:24:37.803Z,83.56
2023-04-16T17:27:05.855Z,83.85
2023-04-16T17:29:33.638Z,83.23
2023-04-16T17:32:01.452Z,82.77
2023-04-16T17:34:29.358Z,82.76
2023-04-16T17:36:58.860Z,82.85
2023-04-16T17:39:27.914Z,82.17
2023-04-16T17:41:58.470Z,83.05
2023-04-16T17:44:28.039Z,82.54
2023-04-16T17:46:55.751Z,82.48
2023-04-16T17:49:23.480Z,82.55
2023-04-16T17:51:51.298Z,82.22
2023-04-16T17:54:19.102Z,82.15
2023-04-16T17:56:48.224Z,83.09
2023-04-16T17:59:15.997Z,82.27
2023-04-16T18:01:49.728Z,82.00
2023-04-16T18:04:18.124Z,82.18
2023-04-16T18:06:46.477Z,82.24
2023-04-16T18:09:14.450Z,82.17
2023-04-16T18:11:42.535Z,82.10
2023-04-16T18:14:14.060Z,82.45
2023-04-16T18:16:45.844Z,82.50
2023-04-16T18:19:21.522Z,82.33
2023-04-16T18:21:51.355Z,82.02
2023-04-16T18:24:20.898Z,82.11
2023-04-16T18:26:48.914Z,82.42
2023-04-16T18:29:26.477Z,82.10
2023-04-16T18:31:55.656Z,82.27
2023-04-16T18:34:27.014Z,82.14
2023-04-16T18:36:54.931Z,81.60
2023-04-16T18:39:23.113Z,80.96
2023-04-16T18:41:52.807Z,81.48
2023-04-16T18:44:23.264Z,81.33
2023-04-16T18:46:51.388Z,80.86
2023-04-16T18:49:19.199Z,80.93
2023-04-16T18:51:47.034Z,80.76
2023-04-16T18:54:15.706Z,81.17
2023-04-16T18:56:43.659Z,81.89
2023-04-16T18:59:12.217Z,81.71
2023-04-16T19:01:54.123Z,82.09
2023-04-16T19:04:26.913Z,82.55
2023-04-16T19:06:57.680Z,82.45
2023-04-16T19:09:27.726Z,82.11
2023-04-16T19:11:56.141Z,82.79
2023-04-16T19:14:26.017Z,82.69
2023-04-16T19:16:55.912Z,83.34
2023-04-16T19:19:25.056Z,83.09
2023-04-16T19:21:52.959Z,82.38
2023-04-16T19:24:20.973Z,82.44
2023-04-16T19:26:49.354Z,82.68
2023-04-16T19:29:18.157Z,82.67
2023-04-16T19:31:48.482Z,83.02
2023-04-16T19:34:20.072Z,82.81
2023-04-16T19:36:47.942Z,83.65
2023-04-16T19:39:15.993Z,83.57
2023-04-16T19:41:43.936Z,83.70
2023-04-16T19:44:12.376Z,83.85
2023-04-16T19:46:40.309Z,83.65
2023-04-16T19:49:08.547Z,83.55
2023-04-16T19:51:38.087Z,83.72
2023-04-16T19:54:09.745Z,83.20
2023-04-16T19:56:38.390Z,83.55
2023-04-16T19:59:06.344Z,84.17
2023-04-16T20:01:35.621Z,84.10
2023-04-16T20:04:04.195Z,84.06
2023-04-16T20:06:34.951Z,84.17
2023-04-16T20:09:04.888Z,84.02
2023-04-16T20:11:32.620Z,84.01
2023-04-16T20:14:01.226Z,84.63
2023-04-16T20:16:30.108Z,84.87
2023-04-16T20:19:07.989Z,85.25
2023-04-16T20:21:36.943Z,85.07
2023-04-16T20:24:10.449Z,85.03
2023-04-16T20:26:38.569Z,85.02
2023-04-16T20:29:06.466Z,85.08
2023-04-16T20:31:34.304Z,85.07
2023-04-16T20:34:02.231Z,85.02
2023-04-16T20:36:29.962Z,85.14
2023-04-16T20:38:59.397Z,85.01
2023-04-16T20:41:30.102Z,85.28
2023-04-16T20:43:58.071Z,86.15
2023-04-16T20:46:25.814Z,85.98
2023-04-16T20:48:53.509Z,85.82
2023-04-16T20:51:21.520Z,86.10
2023-04-16T20:53:50.101Z,85.99
2023-04-16T20:56:17.828Z,85.79
2023-04-16T20:58:46.965Z,85.74
2023-04-16T21:01:14.841Z,85.54
2023-04-16T21:03:42.992Z,85.41
2023-04-16T21:06:14.351Z,85.72
2023-04-16T21:08:42.125Z,85.92
2023-04-16T21:11:09.842Z,86.46
2023-04-16T21:13:38.138Z,86.14
2023-04-16T21:16:09.728Z,86.73
2023-04-16T21:18:37.903Z,86.84
2023-04-16T21:21:05.809Z,86.77
2023-04-16T21:23:33.620Z,86.80
2023-04-16T21:26:01.305Z,86.85
2023-04-16T21:28:29.414Z,87.27
2023-04-16T21:30:57.472Z,87.59
2023-04-16T21:33:26.646Z,87.23
2023-04-16T21:35:54.779Z,87.51
2023-04-16T21:38:23.310Z,87.36
2023-04-16T21:40:53.937Z,87.45
2023-04-16T21:43:21.774Z,87.37
2023-04-16T21:45:49.641Z,87.11
2023-04-16T21:48:17.385Z,86.99
2023-04-16T21:50:46.506Z,86.76
2023-04-16T21:53:14.365Z,87.11
2023-04-16T21:55:42.185Z,87.36
2023-04-16T21:58:09.989Z,87.72
2023-04-16T22:00:37.973Z,87.92
2023-04-16T22:03:05.974Z,88.13
2023-04-16T22:05:33.771Z,88.05
2023-04-16T22:08:16.878Z,88.37
2023-04-16T22:10:45.072Z,88.65
2023-04-16T22:13:13.809Z,89.14
2023-04-16T22:15:42.191Z,89.04
2023-04-16T22:18:10.394Z,89.04
2023-04-16T22:20:39.795Z,89.46
2023-04-16T22:23:08.966Z,88.91
2023-04-16T22:25:36.850Z,89.07
2023-04-16T22:28:04.647Z,89.15
2023-04-16T22:30:32.481Z,88.89
2023-04-16T22:33:00.986Z,89.06
2023-04-16T22:35:28.776Z,89.00
2023-04-16T22:37:56.574Z,89.07
2023-04-16T22:40:25.672Z,89.26
2023-04-16T22:42:53.416Z,89.35
2023-04-16T22:45:21.204Z,89.78
2023-04-16T22:47:48.973Z,89.68
2023-04-16T22:50:17.473Z,90.41
2023-04-16T22:52:45.226Z,90.47
2023-04-16T22:55:12.974Z,90.09
2023-04-16T22:57:42.171Z,90.12
2023-04-16T23:00:15.368Z,89.89
2023-04-16T23:02:43.271Z,90.13
2023-04-16T23:05:11.665Z,90.09
2023-04-16T23:07:39.635Z,90.34
2023-04-16T23:10:08.931Z,90.46
2023-04-16T23:12:38.110Z,90.77
2023-04-16T23:15:08.848Z,90.93
2023-04-16T23:17:36.918Z,90.86
2023-04-16T23:20:07.643Z,90.51
2023-04-16T23:22:35.997Z,90.43
2023-04-16T23:25:03.774Z,90.55
2023-04-16T23:27:32.478Z,90.32
2023-04-16T23:30:00.344Z,89.93
2023-04-16T23:32:29.516Z,89.39
2023-04-16T23:34:57.487Z,89.93
2023-04-16T23:37:25.400Z,90.20
2023-04-16T23:39:53.175Z,90.22
2023-04-16T23:42:20.991Z,90.61
2023-04-16T23:44:48.739Z,90.66
2023-04-16T23:47:16.422Z,89.63
2023-04-16T23:49:45.505Z,90.09
2023-04-16T23:52:13.302Z,89.27
2023-04-16T23:54:41.232Z,89.52
2023-04-16T23:57:09.071Z,89.47
2023-04-16T23:59:36.772Z,89.30
